sensor_id;sensor_type;location;lat;lon;timestamp;P1;durP1;ratioP1;P2;durP2;ratioP2
15476;SDS011;7840;42.702;23.296;2023-03-03T00:02:27;4.53;;;4.13;;
15476;SDS011;7840;42.702;23.296;2023-03-03T00:04:55;4.67;;;3.50;;
15476;SDS011;7840;42.702;23.296;2023-03-03T00:07:22;5.40;;;4.20;;
15476;SDS011;7840;42.702;23.296;2023-03-03T00:09:59;6.87;;;4.17;;
15476;SDS011;7840;42.702;23.296;2023-03-03T00:12:27;4.77;;;4.27;;
15476;SDS011;7840;42.702;23.296;2023-03-03T00:14:55;7.50;;;4.67;;
15476;SDS011;7840;42.702;23.296;2023-03-03T00:17:23;4.93;;;4.40;;
15476;SDS011;7840;42.702;23.296;2023-03-03T00:25:26;5.60;;;4.90;;
15476;SDS011;7840;42.702;23.296;2023-03-03T00:30:26;6.13;;;5.53;;
15476;SDS011;7840;42.702;23.296;2023-03-03T00:32:54;6.00;;;5.37;;
15476;SDS011;7840;42.702;23.296;2023-03-03T00:35:23;7.77;;;6.00;;
15476;SDS011;7840;42.702;23.296;2023-03-03T00:37:52;7.10;;;6.40;;
15476;SDS011;7840;42.702;23.296;2023-03-03T00:40:22;7.70;;;6.80;;
15476;SDS011;7840;42.702;23.296;2023-03-03T00:42:55;9.03;;;6.57;;
15476;SDS011;7840;42.702;23.296;2023-03-03T00:45:25;8.30;;;6.50;;
15476;SDS011;7840;42.702;23.296;2023-03-03T00:47:53;7.03;;;6.33;;
15476;SDS011;7840;42.702;23.296;2023-03-03T00:50:28;7.60;;;6.13;;
15476;SDS011;7840;42.702;23.296;2023-03-03T00:53:05;6.23;;;5.63;;
15476;SDS011;7840;42.702;23.296;2023-03-03T00:55:33;7.33;;;6.00;;
15476;SDS011;7840;42.702;23.296;2023-03-03T01:00:32;8.40;;;6.50;;
15476;SDS011;7840;42.702;23.296;2023-03-03T01:03:15;7.37;;;6.27;;
15476;SDS011;7840;42.702;23.296;2023-03-03T01:05:43;7.27;;;6.23;;
15476;SDS011;7840;42.702;23.296;2023-03-03T01:08:24;9.83;;;6.40;;
15476;SDS011;7840;42.702;23.296;2023-03-03T01:10:55;7.13;;;6.43;;
15476;SDS011;7840;42.702;23.296;2023-03-03T01:13:25;6.77;;;6.03;;
15476;SDS011;7840;42.702;23.296;2023-03-03T01:16:08;7.53;;;6.73;;
15476;SDS011;7840;42.702;23.296;2023-03-03T01:18:45;7.87;;;6.60;;
15476;SDS011;7840;42.702;23.296;2023-03-03T01:21:13;7.17;;;6.47;;
15476;SDS011;7840;42.702;23.296;2023-03-03T01:23:40;7.47;;;6.37;;
15476;SDS011;7840;42.702;23.296;2023-03-03T01:26:08;7.27;;;6.57;;
15476;SDS011;7840;42.702;23.296;2023-03-03T01:28:35;7.40;;;6.13;;
15476;SDS011;7840;42.702;23.296;2023-03-03T01:31:03;7.73;;;7.00;;
15476;SDS011;7840;42.702;23.296;2023-03-03T01:33:48;7.47;;;6.70;;
15476;SDS011;7840;42.702;23.296;2023-03-03T01:36:19;7.70;;;6.87;;
15476;SDS011;7840;42.702;23.296;2023-03-03T01:38:49;7.10;;;6.40;;
15476;SDS011;7840;42.702;23.296;2023-03-03T01:41:16;8.00;;;6.83;;
15476;SDS011;7840;42.702;23.296;2023-03-03T01:43:44;7.43;;;6.67;;
15476;SDS011;7840;42.702;23.296;2023-03-03T01:46:28;6.30;;;5.67;;
15476;SDS011;7840;42.702;23.296;2023-03-03T01:48:59;7.93;;;6.17;;
15476;SDS011;7840;42.702;23.296;2023-03-03T01:51:42;7.47;;;6.40;;
15476;SDS011;7840;42.702;23.296;2023-03-03T01:54:22;8.50;;;6.10;;
15476;SDS011;7840;42.702;23.296;2023-03-03T01:57:18;8.93;;;6.80;;
15476;SDS011;7840;42.702;23.296;2023-03-03T02:00:03;6.97;;;6.27;;
15476;SDS011;7840;42.702;23.296;2023-03-03T02:02:45;6.87;;;5.77;;
15476;SDS011;7840;42.702;23.296;2023-03-03T02:05:30;7.80;;;5.60;;
15476;SDS011;7840;42.702;23.296;2023-03-03T02:08:11;6.83;;;5.80;;
15476;SDS011;7840;42.702;23.296;2023-03-03T02:10:53;7.07;;;6.37;;
15476;SDS011;7840;42.702;23.296;2023-03-03T02:13:20;7.20;;;6.40;;
15476;SDS011;7840;42.702;23.296;2023-03-03T02:15:48;7.20;;;6.23;;
15476;SDS011;7840;42.702;23.296;2023-03-03T02:18:16;6.70;;;6.00;;
15476;SDS011;7840;42.702;23.296;2023-03-03T02:21:03;6.77;;;5.77;;
15476;SDS011;7840;42.702;23.296;2023-03-03T02:23:33;6.27;;;5.67;;
15476;SDS011;7840;42.702;23.296;2023-03-03T02:26:06;5.97;;;5.37;;
15476;SDS011;7840;42.702;23.296;2023-03-03T02:28:34;6.93;;;5.00;;
15476;SDS011;7840;42.702;23.296;2023-03-03T02:31:04;6.23;;;5.63;;
15476;SDS011;7840;42.702;23.296;2023-03-03T02:33:31;5.73;;;5.23;;
15476;SDS011;7840;42.702;23.296;2023-03-03T02:35:59;5.53;;;4.77;;
15476;SDS011;7840;42.702;23.296;2023-03-03T02:38:27;5.37;;;4.87;;
15476;SDS011;7840;42.702;23.296;2023-03-03T02:40:58;6.10;;;5.50;;
15476;SDS011;7840;42.702;23.296;2023-03-03T02:43:30;5.60;;;5.10;;
15476;SDS011;7840;42.702;23.296;2023-03-03T02:45:58;6.07;;;5.27;;
15476;SDS011;7840;42.702;23.296;2023-03-03T02:48:26;6.13;;;5.33;;
15476;SDS011;7840;42.702;23.296;2023-03-03T02:51:06;6.23;;;5.63;;
15476;SDS011;7840;42.702;23.296;2023-03-03T02:53:54;6.73;;;6.00;;
15476;SDS011;7840;42.702;23.296;2023-03-03T02:56:35;7.10;;;5.70;;
15476;SDS011;7840;42.702;23.296;2023-03-03T02:59:18;6.93;;;5.87;;
15476;SDS011;7840;42.702;23.296;2023-03-03T03:01:45;6.30;;;5.70;;
15476;SDS011;7840;42.702;23.296;2023-03-03T03:04:13;6.83;;;6.13;;
15476;SDS011;7840;42.702;23.296;2023-03-03T03:06:41;6.80;;;6.10;;
15476;SDS011;7840;42.702;23.296;2023-03-03T03:09:23;6.50;;;5.90;;
15476;SDS011;7840;42.702;23.296;2023-03-03T03:11:52;7.30;;;6.20;;
15476;SDS011;7840;42.702;23.296;2023-03-03T03:14:53;7.17;;;6.23;;
15476;SDS011;7840;42.702;23.296;2023-03-03T03:17:20;7.43;;;6.43;;
15476;SDS011;7840;42.702;23.296;2023-03-03T03:19:47;7.33;;;6.63;;
15476;SDS011;7840;42.702;23.296;2023-03-03T03:22:27;8.07;;;7.27;;
15476;SDS011;7840;42.702;23.296;2023-03-03T03:24:54;8.13;;;7.33;;
15476;SDS011;7840;42.702;23.296;2023-03-03T03:27:22;11.50;;;7.90;;
15476;SDS011;7840;42.702;23.296;2023-03-03T03:29:49;9.73;;;8.73;;
15476;SDS011;7840;42.702;23.296;2023-03-03T03:32:20;9.00;;;7.73;;
15476;SDS011;7840;42.702;23.296;2023-03-03T03:34:49;9.80;;;8.27;;
15476;SDS011;7840;42.702;23.296;2023-03-03T03:37:16;9.20;;;8.23;;
15476;SDS011;7840;42.702;23.296;2023-03-03T03:39:45;9.43;;;7.93;;
15476;SDS011;7840;42.702;23.296;2023-03-03T03:42:15;9.83;;;7.93;;
15476;SDS011;7840;42.702;23.296;2023-03-03T03:44:44;10.30;;;7.60;;
15476;SDS011;7840;42.702;23.296;2023-03-03T03:47:13;10.37;;;7.43;;
15476;SDS011;7840;42.702;23.296;2023-03-03T03:49:42;8.63;;;7.53;;
15476;SDS011;7840;42.702;23.296;2023-03-03T03:52:09;10.63;;;8.47;;
15476;SDS011;7840;42.702;23.296;2023-03-03T03:54:36;9.03;;;7.93;;
15476;SDS011;7840;42.702;23.296;2023-03-03T03:57:04;9.00;;;8.10;;
15476;SDS011;7840;42.702;23.296;2023-03-03T03:59:40;10.43;;;9.13;;
15476;SDS011;7840;42.702;23.296;2023-03-03T04:02:07;9.50;;;8.47;;
15476;SDS011;7840;42.702;23.296;2023-03-03T04:04:35;10.53;;;8.50;;
15476;SDS011;7840;42.702;23.296;2023-03-03T04:07:03;10.07;;;9.07;;
15476;SDS011;7840;42.702;23.296;2023-03-03T04:09:31;9.93;;;8.93;;
15476;SDS011;7840;42.702;23.296;2023-03-03T04:12:01;11.97;;;9.50;;
15476;SDS011;7840;42.702;23.296;2023-03-03T04:14:37;9.83;;;8.63;;
15476;SDS011;7840;42.702;23.296;2023-03-03T04:17:04;10.43;;;9.33;;
15476;SDS011;7840;42.702;23.296;2023-03-03T04:19:31;11.47;;;9.53;;
15476;SDS011;7840;42.702;23.296;2023-03-03T04:21:59;10.77;;;9.63;;
15476;SDS011;7840;42.702;23.296;2023-03-03T04:24:28;12.60;;;10.47;;
15476;SDS011;7840;42.702;23.296;2023-03-03T04:26:55;11.30;;;10.10;;
15476;SDS011;7840;42.702;23.296;2023-03-03T04:29:33;10.73;;;9.53;;
15476;SDS011;7840;42.702;23.296;2023-03-03T04:32:00;12.13;;;9.70;;
15476;SDS011;7840;42.702;23.296;2023-03-03T04:34:28;11.83;;;9.37;;
15476;SDS011;7840;42.702;23.296;2023-03-03T04:36:55;14.57;;;10.83;;
15476;SDS011;7840;42.702;23.296;2023-03-03T04:39:22;15.43;;;10.83;;
15476;SDS011;7840;42.702;23.296;2023-03-03T04:44:33;13.17;;;10.43;;
15476;SDS011;7840;42.702;23.296;2023-03-03T04:47:01;11.77;;;10.53;;
15476;SDS011;7840;42.702;23.296;2023-03-03T04:49:28;13.73;;;11.27;;
15476;SDS011;7840;42.702;23.296;2023-03-03T04:51:55;13.53;;;9.87;;
15476;SDS011;7840;42.702;23.296;2023-03-03T04:54:23;14.23;;;11.10;;
15476;SDS011;7840;42.702;23.296;2023-03-03T04:56:52;13.77;;;11.90;;
15476;SDS011;7840;42.702;23.296;2023-03-03T04:59:20;11.33;;;10.17;;
15476;SDS011;7840;42.702;23.296;2023-03-03T05:01:49;12.47;;;10.67;;
15476;SDS011;7840;42.702;23.296;2023-03-03T05:04:17;14.13;;;11.27;;
15476;SDS011;7840;42.702;23.296;2023-03-03T05:06:44;12.90;;;10.07;;
15476;SDS011;7840;42.702;23.296;2023-03-03T05:09:11;13.27;;;11.20;;
15476;SDS011;7840;42.702;23.296;2023-03-03T05:11:38;14.00;;;11.37;;
15476;SDS011;7840;42.702;23.296;2023-03-03T05:14:06;18.27;;;13.17;;
15476;SDS011;7840;42.702;23.296;2023-03-03T05:16:33;12.97;;;11.67;;
15476;SDS011;7840;42.702;23.296;2023-03-03T05:19:02;13.70;;;11.53;;
15476;SDS011;7840;42.702;23.296;2023-03-03T05:21:29;15.97;;;11.47;;
15476;SDS011;7840;42.702;23.296;2023-03-03T05:23:56;13.10;;;11.57;;
15476;SDS011;7840;42.702;23.296;2023-03-03T05:26:24;15.33;;;13.07;;
15476;SDS011;7840;42.702;23.296;2023-03-03T05:28:51;14.30;;;11.30;;
15476;SDS011;7840;42.702;23.296;2023-03-03T05:31:18;14.90;;;12.17;;
15476;SDS011;7840;42.702;23.296;2023-03-03T05:33:46;15.80;;;12.27;;
15476;SDS011;7840;42.702;23.296;2023-03-03T05:36:23;15.57;;;12.03;;
15476;SDS011;7840;42.702;23.296;2023-03-03T05:38:52;16.17;;;12.70;;
15476;SDS011;7840;42.702;23.296;2023-03-03T05:41:22;16.43;;;12.83;;
15476;SDS011;7840;42.702;23.296;2023-03-03T05:43:49;16.30;;;14.07;;
15476;SDS011;7840;42.702;23.296;2023-03-03T05:46:16;17.23;;;14.43;;
15476;SDS011;7840;42.702;23.296;2023-03-03T05:48:44;16.70;;;14.07;;
15476;SDS011;7840;42.702;23.296;2023-03-03T05:51:11;16.13;;;13.63;;
15476;SDS011;7840;42.702;23.296;2023-03-03T05:56:23;17.07;;;12.53;;
15476;SDS011;7840;42.702;23.296;2023-03-03T05:58:50;11.87;;;10.10;;
15476;SDS011;7840;42.702;23.296;2023-03-03T06:01:18;13.57;;;11.67;;
15476;SDS011;7840;42.702;23.296;2023-03-03T06:03:46;14.30;;;11.03;;
15476;SDS011;7840;42.702;23.296;2023-03-03T06:06:13;14.33;;;11.30;;
15476;SDS011;7840;42.702;23.296;2023-03-03T06:08:53;14.73;;;11.07;;
15476;SDS011;7840;42.702;23.296;2023-03-03T06:11:20;13.47;;;11.23;;
15476;SDS011;7840;42.702;23.296;2023-03-03T06:13:56;15.00;;;12.33;;
15476;SDS011;7840;42.702;23.296;2023-03-03T06:16:24;14.13;;;10.53;;
15476;SDS011;7840;42.702;23.296;2023-03-03T06:18:51;15.10;;;11.20;;
15476;SDS011;7840;42.702;23.296;2023-03-03T06:21:18;13.90;;;10.90;;
15476;SDS011;7840;42.702;23.296;2023-03-03T06:23:46;16.57;;;12.17;;
15476;SDS011;7840;42.702;23.296;2023-03-03T06:26:13;14.57;;;11.87;;
15476;SDS011;7840;42.702;23.296;2023-03-03T06:36:23;13.33;;;11.93;;
15476;SDS011;7840;42.702;23.296;2023-03-03T06:52:45;13.13;;;11.07;;
15476;SDS011;7840;42.702;23.296;2023-03-03T06:55:15;11.40;;;10.30;;
15476;SDS011;7840;42.702;23.296;2023-03-03T06:57:44;12.63;;;11.33;;
15476;SDS011;7840;42.702;23.296;2023-03-03T07:00:13;14.33;;;10.43;;
15476;SDS011;7840;42.702;23.296;2023-03-03T07:02:41;13.00;;;11.10;;
15476;SDS011;7840;42.702;23.296;2023-03-03T07:05:10;12.40;;;10.90;;
15476;SDS011;7840;42.702;23.296;2023-03-03T07:07:39;13.80;;;11.53;;
15476;SDS011;7840;42.702;23.296;2023-03-03T07:10:12;11.20;;;9.50;;
15476;SDS011;7840;42.702;23.296;2023-03-03T07:12:42;13.17;;;10.17;;
15476;SDS011;7840;42.702;23.296;2023-03-03T07:15:11;12.80;;;9.67;;
15476;SDS011;7840;42.702;23.296;2023-03-03T07:17:41;10.80;;;9.70;;
15476;SDS011;7840;42.702;23.296;2023-03-03T07:20:10;14.23;;;10.97;;
15476;SDS011;7840;42.702;23.296;2023-03-03T07:22:41;11.87;;;10.27;;
15476;SDS011;7840;42.702;23.296;2023-03-03T07:25:14;11.53;;;10.33;;
15476;SDS011;7840;42.702;23.296;2023-03-03T07:27:45;10.70;;;8.87;;
15476;SDS011;7840;42.702;23.296;2023-03-03T07:30:16;11.77;;;9.57;;
15476;SDS011;7840;42.702;23.296;2023-03-03T07:32:49;10.73;;;9.63;;
15476;SDS011;7840;42.702;23.296;2023-03-03T07:35:23;10.50;;;9.17;;
15476;SDS011;7840;42.702;23.296;2023-03-03T07:37:53;11.70;;;10.43;;
15476;SDS011;7840;42.702;23.296;2023-03-03T07:40:28;12.67;;;9.87;;
15476;SDS011;7840;42.702;23.296;2023-03-03T07:42:57;11.10;;;9.73;;
15476;SDS011;7840;42.702;23.296;2023-03-03T07:45:26;11.93;;;9.87;;
15476;SDS011;7840;42.702;23.296;2023-03-03T07:47:55;13.10;;;10.43;;
15476;SDS011;7840;42.702;23.296;2023-03-03T07:50:24;12.37;;;10.13;;
15476;SDS011;7840;42.702;23.296;2023-03-03T07:53:07;12.47;;;9.83;;
15476;SDS011;7840;42.702;23.296;2023-03-03T07:55:39;11.73;;;10.37;;
15476;SDS011;7840;42.702;23.296;2023-03-03T07:58:14;10.10;;;9.20;;
15476;SDS011;7840;42.702;23.296;2023-03-03T08:03:37;11.07;;;9.73;;
15476;SDS011;7840;42.702;23.296;2023-03-03T08:06:07;11.07;;;9.87;;
15476;SDS011;7840;42.702;23.296;2023-03-03T08:08:36;11.03;;;9.87;;
15476;SDS011;7840;42.702;23.296;2023-03-03T08:11:09;12.80;;;11.47;;
15476;SDS011;7840;42.702;23.296;2023-03-03T08:13:37;10.93;;;9.83;;
15476;SDS011;7840;42.702;23.296;2023-03-03T08:16:17;10.70;;;9.23;;
15476;SDS011;7840;42.702;23.296;2023-03-03T08:18:47;11.10;;;9.90;;
15476;SDS011;7840;42.702;23.296;2023-03-03T08:21:15;12.57;;;10.80;;
15476;SDS011;7840;42.702;23.296;2023-03-03T08:23:44;14.20;;;11.33;;
15476;SDS011;7840;42.702;23.296;2023-03-03T08:26:14;15.30;;;11.20;;
15476;SDS011;7840;42.702;23.296;2023-03-03T08:28:52;13.37;;;11.97;;
15476;SDS011;7840;42.702;23.296;2023-03-03T08:31:20;14.07;;;11.77;;
15476;SDS011;7840;42.702;23.296;2023-03-03T08:33:47;10.73;;;9.63;;
15476;SDS011;7840;42.702;23.296;2023-03-03T08:36:15;11.50;;;10.30;;
15476;SDS011;7840;42.702;23.296;2023-03-03T08:38:42;12.27;;;10.90;;
15476;SDS011;7840;42.702;23.296;2023-03-03T08:41:10;11.17;;;9.80;;
15476;SDS011;7840;42.702;23.296;2023-03-03T08:43:53;11.80;;;10.57;;
15476;SDS011;7840;42.702;23.296;2023-03-03T08:46:21;11.70;;;10.50;;
15476;SDS011;7840;42.702;23.296;2023-03-03T08:48:48;12.37;;;10.53;;
15476;SDS011;7840;42.702;23.296;2023-03-03T08:51:16;12.47;;;11.17;;
15476;SDS011;7840;42.702;23.296;2023-03-03T08:53:44;12.50;;;11.20;;
15476;SDS011;7840;42.702;23.296;2023-03-03T08:56:11;15.20;;;11.63;;
15476;SDS011;7840;42.702;23.296;2023-03-03T08:58:54;18.67;;;12.87;;
15476;SDS011;7840;42.702;23.296;2023-03-03T09:01:21;14.00;;;12.53;;
15476;SDS011;7840;42.702;23.296;2023-03-03T09:03:48;12.27;;;10.97;;
15476;SDS011;7840;42.702;23.296;2023-03-03T09:06:16;17.67;;;12.07;;
15476;SDS011;7840;42.702;23.296;2023-03-03T09:08:43;16.93;;;12.60;;
15476;SDS011;7840;42.702;23.296;2023-03-03T09:11:10;14.13;;;12.03;;
15476;SDS011;7840;42.702;23.296;2023-03-03T09:13:46;15.20;;;12.30;;
15476;SDS011;7840;42.702;23.296;2023-03-03T09:16:18;15.13;;;12.60;;
15476;SDS011;7840;42.702;23.296;2023-03-03T09:18:46;14.73;;;11.13;;
15476;SDS011;7840;42.702;23.296;2023-03-03T09:21:18;15.40;;;13.00;;
15476;SDS011;7840;42.702;23.296;2023-03-03T09:23:48;13.53;;;10.27;;
15476;SDS011;7840;42.702;23.296;2023-03-03T09:26:21;15.80;;;11.93;;
15476;SDS011;7840;42.702;23.296;2023-03-03T09:28:51;15.70;;;11.90;;
15476;SDS011;7840;42.702;23.296;2023-03-03T09:31:23;12.93;;;10.63;;
15476;SDS011;7840;42.702;23.296;2023-03-03T09:33:51;11.33;;;10.10;;
15476;SDS011;7840;42.702;23.296;2023-03-03T09:36:23;12.27;;;10.63;;
15476;SDS011;7840;42.702;23.296;2023-03-03T09:38:53;11.67;;;9.70;;
15476;SDS011;7840;42.702;23.296;2023-03-03T09:41:31;11.33;;;10.23;;
15476;SDS011;7840;42.702;23.296;2023-03-03T09:44:08;11.77;;;9.70;;
15476;SDS011;7840;42.702;23.296;2023-03-03T09:46:44;11.83;;;10.27;;
15476;SDS011;7840;42.702;23.296;2023-03-03T09:49:16;10.63;;;9.13;;
15476;SDS011;7840;42.702;23.296;2023-03-03T09:51:53;10.97;;;9.33;;
15476;SDS011;7840;42.702;23.296;2023-03-03T09:54:27;14.47;;;10.77;;
15476;SDS011;7840;42.702;23.296;2023-03-03T09:57:01;11.47;;;10.07;;
15476;SDS011;7840;42.702;23.296;2023-03-03T09:59:34;11.53;;;10.33;;
15476;SDS011;7840;42.702;23.296;2023-03-03T10:02:18;11.93;;;10.57;;
15476;SDS011;7840;42.702;23.296;2023-03-03T10:05:00;13.27;;;11.20;;
15476;SDS011;7840;42.702;23.296;2023-03-03T10:07:47;12.70;;;11.00;;
15476;SDS011;7840;42.702;23.296;2023-03-03T10:10:34;12.87;;;11.43;;
15476;SDS011;7840;42.702;23.296;2023-03-03T10:13:10;12.43;;;11.00;;
15476;SDS011;7840;42.702;23.296;2023-03-03T10:15:42;13.47;;;11.07;;
15476;SDS011;7840;42.702;23.296;2023-03-03T10:18:17;13.33;;;11.13;;
15476;SDS011;7840;42.702;23.296;2023-03-03T10:20:54;12.43;;;11.13;;
15476;SDS011;7840;42.702;23.296;2023-03-03T10:23:27;12.20;;;10.93;;
15476;SDS011;7840;42.702;23.296;2023-03-03T10:25:58;10.93;;;9.80;;
15476;SDS011;7840;42.702;23.296;2023-03-03T10:28:52;14.57;;;11.80;;
15476;SDS011;7840;42.702;23.296;2023-03-03T10:31:40;14.10;;;12.03;;
15476;SDS011;7840;42.702;23.296;2023-03-03T10:34:16;14.33;;;12.07;;
15476;SDS011;7840;42.702;23.296;2023-03-03T10:36:49;13.43;;;11.90;;
15476;SDS011;7840;42.702;23.296;2023-03-03T10:39:21;13.83;;;11.83;;
15476;SDS011;7840;42.702;23.296;2023-03-03T10:42:04;15.93;;;12.70;;
15476;SDS011;7840;42.702;23.296;2023-03-03T10:44:42;13.97;;;12.00;;
15476;SDS011;7840;42.702;23.296;2023-03-03T10:47:25;12.73;;;11.23;;
15476;SDS011;7840;42.702;23.296;2023-03-03T10:52:43;14.03;;;12.47;;
15476;SDS011;7840;42.702;23.296;2023-03-03T10:55:16;15.57;;;12.60;;
15476;SDS011;7840;42.702;23.296;2023-03-03T10:57:48;13.47;;;11.97;;
15476;SDS011;7840;42.702;23.296;2023-03-03T11:00:20;13.60;;;11.73;;
15476;SDS011;7840;42.702;23.296;2023-03-03T11:02:53;13.17;;;11.77;;
15476;SDS011;7840;42.702;23.296;2023-03-03T11:05:28;15.07;;;13.07;;
15476;SDS011;7840;42.702;23.296;2023-03-03T11:08:00;16.57;;;12.77;;
15476;SDS011;7840;42.702;23.296;2023-03-03T11:10:45;14.73;;;12.77;;
15476;SDS011;7840;42.702;23.296;2023-03-03T11:13:16;15.63;;;13.93;;
15476;SDS011;7840;42.702;23.296;2023-03-03T11:15:48;17.03;;;13.43;;
15476;SDS011;7840;42.702;23.296;2023-03-03T11:18:20;16.17;;;14.03;;
15476;SDS011;7840;42.702;23.296;2023-03-03T11:20:51;16.23;;;14.53;;
15476;SDS011;7840;42.702;23.296;2023-03-03T11:23:27;16.60;;;14.93;;
15476;SDS011;7840;42.702;23.296;2023-03-03T11:26:02;17.70;;;15.53;;
15476;SDS011;7840;42.702;23.296;2023-03-03T11:28:39;17.37;;;15.47;;
15476;SDS011;7840;42.702;23.296;2023-03-03T11:31:14;16.90;;;15.20;;
15476;SDS011;7840;42.702;23.296;2023-03-03T11:33:46;17.93;;;15.97;;
15476;SDS011;7840;42.702;23.296;2023-03-03T11:36:19;18.63;;;16.73;;
15476;SDS011;7840;42.702;23.296;2023-03-03T11:38:52;19.33;;;16.53;;
15476;SDS011;7840;42.702;23.296;2023-03-03T11:41:30;21.60;;;17.67;;
15476;SDS011;7840;42.702;23.296;2023-03-03T11:44:02;18.07;;;16.17;;
15476;SDS011;7840;42.702;23.296;2023-03-03T11:46:33;21.47;;;17.87;;
15476;SDS011;7840;42.702;23.296;2023-03-03T11:49:03;19.67;;;17.63;;
15476;SDS011;7840;42.702;23.296;2023-03-03T11:51:33;16.50;;;14.83;;
15476;SDS011;7840;42.702;23.296;2023-03-03T11:54:04;17.23;;;15.40;;
15476;SDS011;7840;42.702;23.296;2023-03-03T11:56:38;19.07;;;17.07;;
15476;SDS011;7840;42.702;23.296;2023-03-03T11:59:21;21.23;;;17.70;;
15476;SDS011;7840;42.702;23.296;2023-03-03T12:01:55;20.60;;;18.37;;
15476;SDS011;7840;42.702;23.296;2023-03-03T12:04:24;19.20;;;17.13;;
15476;SDS011;7840;42.702;23.296;2023-03-03T12:06:58;20.23;;;15.07;;
15476;SDS011;7840;42.702;23.296;2023-03-03T12:09:34;17.13;;;15.33;;
15476;SDS011;7840;42.702;23.296;2023-03-03T12:12:05;16.60;;;14.90;;
15476;SDS011;7840;42.702;23.296;2023-03-03T12:14:38;18.27;;;16.37;;
15476;SDS011;7840;42.702;23.296;2023-03-03T12:17:10;17.93;;;15.57;;
15476;SDS011;7840;42.702;23.296;2023-03-03T12:19:42;17.13;;;15.23;;
15476;SDS011;7840;42.702;23.296;2023-03-03T12:22:15;14.50;;;13.10;;
15476;SDS011;7840;42.702;23.296;2023-03-03T12:24:55;16.23;;;12.80;;
15476;SDS011;7840;42.702;23.296;2023-03-03T12:27:26;15.27;;;13.77;;
15476;SDS011;7840;42.702;23.296;2023-03-03T12:29:58;16.60;;;14.70;;
15476;SDS011;7840;42.702;23.296;2023-03-03T12:32:34;17.27;;;15.53;;
15476;SDS011;7840;42.702;23.296;2023-03-03T12:35:08;15.63;;;14.13;;
15476;SDS011;7840;42.702;23.296;2023-03-03T12:37:46;15.63;;;13.00;;
15476;SDS011;7840;42.702;23.296;2023-03-03T12:40:18;12.90;;;11.60;;
15476;SDS011;7840;42.702;23.296;2023-03-03T12:42:52;14.50;;;13.03;;
15476;SDS011;7840;42.702;23.296;2023-03-03T12:45:27;15.87;;;14.23;;
15476;SDS011;7840;42.702;23.296;2023-03-03T12:47:58;15.30;;;13.47;;
15476;SDS011;7840;42.702;23.296;2023-03-03T12:50:29;12.50;;;11.20;;
15476;SDS011;7840;42.702;23.296;2023-03-03T12:53:02;12.17;;;10.97;;
15476;SDS011;7840;42.702;23.296;2023-03-03T12:55:38;12.03;;;10.93;;
15476;SDS011;7840;42.702;23.296;2023-03-03T12:58:11;11.37;;;9.40;;
15476;SDS011;7840;42.702;23.296;2023-03-03T13:00:42;10.63;;;9.63;;
15476;SDS011;7840;42.702;23.296;2023-03-03T13:03:16;13.10;;;11.80;;
15476;SDS011;7840;42.702;23.296;2023-03-03T13:05:48;14.17;;;12.27;;
15476;SDS011;7840;42.702;23.296;2023-03-03T13:11:05;14.10;;;11.73;;
15476;SDS011;7840;42.702;23.296;2023-03-03T13:13:39;13.23;;;11.83;;
15476;SDS011;7840;42.702;23.296;2023-03-03T13:16:10;13.63;;;12.27;;
15476;SDS011;7840;42.702;23.296;2023-03-03T13:18:43;11.40;;;10.30;;
15476;SDS011;7840;42.702;23.296;2023-03-03T13:21:15;10.97;;;9.77;;
15476;SDS011;7840;42.702;23.296;2023-03-03T13:23:47;11.70;;;10.50;;
15476;SDS011;7840;42.702;23.296;2023-03-03T13:26:19;9.50;;;8.27;;
15476;SDS011;7840;42.702;23.296;2023-03-03T13:28:56;10.30;;;9.30;;
15476;SDS011;7840;42.702;23.296;2023-03-03T13:31:28;9.87;;;8.87;;
15476;SDS011;7840;42.702;23.296;2023-03-03T13:33:57;9.50;;;8.60;;
15476;SDS011;7840;42.702;23.296;2023-03-03T13:36:27;9.77;;;8.93;;
15476;SDS011;7840;42.702;23.296;2023-03-03T13:38:56;10.10;;;9.00;;
15476;SDS011;7840;42.702;23.296;2023-03-03T13:41:27;9.83;;;8.93;;
15476;SDS011;7840;42.702;23.296;2023-03-03T13:43:57;9.23;;;8.43;;
15476;SDS011;7840;42.702;23.296;2023-03-03T13:46:31;10.97;;;9.37;;
15476;SDS011;7840;42.702;23.296;2023-03-03T13:49:06;9.83;;;8.83;;
15476;SDS011;7840;42.702;23.296;2023-03-03T13:51:40;8.73;;;7.93;;
15476;SDS011;7840;42.702;23.296;2023-03-03T13:54:11;9.10;;;8.20;;
15476;SDS011;7840;42.702;23.296;2023-03-03T13:56:51;10.10;;;8.77;;
15476;SDS011;7840;42.702;23.296;2023-03-03T13:59:23;10.43;;;9.33;;
15476;SDS011;7840;42.702;23.296;2023-03-03T14:01:54;10.57;;;9.47;;
15476;SDS011;7840;42.702;23.296;2023-03-03T14:04:28;10.37;;;9.33;;
15476;SDS011;7840;42.702;23.296;2023-03-03T14:07:00;10.57;;;9.50;;
15476;SDS011;7840;42.702;23.296;2023-03-03T14:09:42;12.87;;;10.30;;
15476;SDS011;7840;42.702;23.296;2023-03-03T14:12:13;10.87;;;9.77;;
15476;SDS011;7840;42.702;23.296;2023-03-03T14:14:46;9.60;;;8.60;;
15476;SDS011;7840;42.702;23.296;2023-03-03T14:17:16;8.67;;;7.77;;
15476;SDS011;7840;42.702;23.296;2023-03-03T14:19:47;6.60;;;6.03;;
15476;SDS011;7840;42.702;23.296;2023-03-03T14:22:18;6.83;;;6.23;;
15476;SDS011;7840;42.702;23.296;2023-03-03T14:24:53;7.50;;;6.73;;
15476;SDS011;7840;42.702;23.296;2023-03-03T14:27:23;7.93;;;7.17;;
15476;SDS011;7840;42.702;23.296;2023-03-03T14:29:51;8.73;;;6.87;;
15476;SDS011;7840;42.702;23.296;2023-03-03T14:32:22;8.17;;;7.00;;
15476;SDS011;7840;42.702;23.296;2023-03-03T14:34:55;7.93;;;6.93;;
15476;SDS011;7840;42.702;23.296;2023-03-03T14:37:24;9.77;;;8.27;;
15476;SDS011;7840;42.702;23.296;2023-03-03T14:39:59;8.57;;;7.77;;
15476;SDS011;7840;42.702;23.296;2023-03-03T14:42:32;9.60;;;8.60;;
15476;SDS011;7840;42.702;23.296;2023-03-03T14:45:12;9.50;;;8.50;;
15476;SDS011;7840;42.702;23.296;2023-03-03T14:47:42;9.73;;;8.83;;
15476;SDS011;7840;42.702;23.296;2023-03-03T14:50:26;10.63;;;8.33;;
15476;SDS011;7840;42.702;23.296;2023-03-03T14:53:03;9.57;;;8.57;;
15476;SDS011;7840;42.702;23.296;2023-03-03T14:55:32;9.63;;;8.73;;
15476;SDS011;7840;42.702;23.296;2023-03-03T14:58:02;8.83;;;8.00;;
15476;SDS011;7840;42.702;23.296;2023-03-03T15:00:31;8.87;;;8.03;;
15476;SDS011;7840;42.702;23.296;2023-03-03T15:03:01;8.40;;;7.60;;
15476;SDS011;7840;42.702;23.296;2023-03-03T15:05:31;8.77;;;7.87;;
15476;SDS011;7840;42.702;23.296;2023-03-03T15:08:06;7.87;;;7.07;;
15476;SDS011;7840;42.702;23.296;2023-03-03T15:10:34;11.33;;;10.17;;
15476;SDS011;7840;42.702;23.296;2023-03-03T15:13:23;9.83;;;8.77;;
15476;SDS011;7840;42.702;23.296;2023-03-03T15:15:59;9.30;;;8.40;;
15476;SDS011;7840;42.702;23.296;2023-03-03T15:18:29;9.30;;;8.40;;
15476;SDS011;7840;42.702;23.296;2023-03-03T15:20:58;10.67;;;8.70;;
15476;SDS011;7840;42.702;23.296;2023-03-03T15:23:37;10.10;;;9.03;;
15476;SDS011;7840;42.702;23.296;2023-03-03T15:26:08;8.23;;;7.43;;
15476;SDS011;7840;42.702;23.296;2023-03-03T15:28:44;9.40;;;8.50;;
15476;SDS011;7840;42.702;23.296;2023-03-03T15:31:20;7.80;;;6.87;;
15476;SDS011;7840;42.702;23.296;2023-03-03T15:33:59;8.60;;;7.80;;
15476;SDS011;7840;42.702;23.296;2023-03-03T15:36:37;7.77;;;6.63;;
15476;SDS011;7840;42.702;23.296;2023-03-03T15:39:10;9.63;;;8.17;;
15476;SDS011;7840;42.702;23.296;2023-03-03T15:41:42;9.20;;;8.30;;
15476;SDS011;7840;42.702;23.296;2023-03-03T15:44:16;8.70;;;7.90;;
15476;SDS011;7840;42.702;23.296;2023-03-03T15:52:21;9.30;;;8.33;;
15476;SDS011;7840;42.702;23.296;2023-03-03T15:57:36;9.37;;;8.37;;